sensor_id;sensor_type;location;lat;lon;timestamp;temperature;humidity
66257;DHT22;53049;43.446;3.698;2023-07-31T00:02:03;22.80;99.90
66257;DHT22;53049;43.446;3.698;2023-07-31T00:04:29;22.70;99.90
66257;DHT22;53049;43.446;3.698;2023-07-31T00:06:55;22.80;99.90
66257;DHT22;53049;43.446;3.698;2023-07-31T00:09:20;22.80;99.90
66257;DHT22;53049;43.446;3.698;2023-07-31T00:11:46;22.70;99.90
66257;DHT22;53049;43.446;3.698;2023-07-31T00:14:12;22.70;99.90
66257;DHT22;53049;43.446;3.698;2023-07-31T00:16:37;22.70;99.90
66257;DHT22;53049;43.446;3.698;2023-07-31T00:19:03;22.70;99.90
66257;DHT22;53049;43.446;3.698;2023-07-31T00:21:28;22.70;99.90
66257;DHT22;53049;43.446;3.698;2023-07-31T00:23:54;22.70;99.90
66257;DHT22;53049;43.446;3.698;2023-07-31T00:26:19;22.70;99.90
66257;DHT22;53049;43.446;3.698;2023-07-31T00:28:45;22.80;99.90
66257;DHT22;53049;43.446;3.698;2023-07-31T00:31:11;22.70;99.90
66257;DHT22;53049;43.446;3.698;2023-07-31T00:33:38;22.60;99.90
66257;DHT22;53049;43.446;3.698;2023-07-31T00:36:03;22.60;99.90
66257;DHT22;53049;43.446;3.698;2023-07-31T00:38:29;22.60;99.90
66257;DHT22;53049;43.446;3.698;2023-07-31T00:40:55;22.60;99.90
66257;DHT22;53049;43.446;3.698;2023-07-31T00:43:20;22.50;99.90
66257;DHT22;53049;43.446;3.698;2023-07-31T00:45:46;22.50;99.90
66257;DHT22;53049;43.446;3.698;2023-07-31T00:48:11;22.50;99.90
66257;DHT22;53049;43.446;3.698;2023-07-31T00:50:37;22.40;99.90
66257;DHT22;53049;43.446;3.698;2023-07-31T00:53:04;22.40;99.90
66257;DHT22;53049;43.446;3.698;2023-07-31T00:55:30;22.40;99.90
66257;DHT22;53049;43.446;3.698;2023-07-31T00:57:56;22.40;99.90
66257;DHT22;53049;43.446;3.698;2023-07-31T01:00:22;22.40;99.90
66257;DHT22;53049;43.446;3.698;2023-07-31T01:02:49;22.30;99.90
66257;DHT22;53049;43.446;3.698;2023-07-31T01:05:15;22.20;99.90
66257;DHT22;53049;43.446;3.698;2023-07-31T01:10:16;22.10;99.90
66257;DHT22;53049;43.446;3.698;2023-07-31T01:12:45;22.00;99.90
66257;DHT22;53049;43.446;3.698;2023-07-31T01:15:12;21.90;99.90
66257;DHT22;53049;43.446;3.698;2023-07-31T01:17:38;21.90;99.90
66257;DHT22;53049;43.446;3.698;2023-07-31T01:20:10;21.70;99.90
66257;DHT22;53049;43.446;3.698;2023-07-31T01:28:14;21.60;99.90
66257;DHT22;53049;43.446;3.698;2023-07-31T01:30:44;21.70;99.90
66257;DHT22;53049;43.446;3.698;2023-07-31T01:33:11;21.70;99.90
66257;DHT22;53049;43.446;3.698;2023-07-31T01:35:37;21.70;99.90
66257;DHT22;53049;43.446;3.698;2023-07-31T01:38:05;21.70;99.90
66257;DHT22;53049;43.446;3.698;2023-07-31T01:40:30;21.70;99.90
66257;DHT22;53049;43.446;3.698;2023-07-31T01:42:56;21.60;99.90
66257;DHT22;53049;43.446;3.698;2023-07-31T01:45:22;21.60;99.90
66257;DHT22;53049;43.446;3.698;2023-07-31T01:47:47;21.60;99.90
66257;DHT22;53049;43.446;3.698;2023-07-31T01:50:13;21.60;99.90
66257;DHT22;53049;43.446;3.698;2023-07-31T01:52:39;21.60;99.90
66257;DHT22;53049;43.446;3.698;2023-07-31T01:55:04;21.60;99.90
66257;DHT22;53049;43.446;3.698;2023-07-31T01:57:30;21.60;99.90
66257;DHT22;53049;43.446;3.698;2023-07-31T01:59:56;21.60;99.90
66257;DHT22;53049;43.446;3.698;2023-07-31T02:02:22;21.50;99.90
66257;DHT22;53049;43.446;3.698;2023-07-31T02:04:48;21.40;99.90
66257;DHT22;53049;43.446;3.698;2023-07-31T02:07:14;21.40;99.90
66257;DHT22;53049;43.446;3.698;2023-07-31T02:09:40;21.40;99.90
66257;DHT22;53049;43.446;3.698;2023-07-31T02:12:06;21.30;99.90
66257;DHT22;53049;43.446;3.698;2023-07-31T02:14:34;21.30;99.90
66257;DHT22;53049;43.446;3.698;2023-07-31T02:16:59;21.30;99.90
66257;DHT22;53049;43.446;3.698;2023-07-31T02:19:25;21.30;99.90
66257;DHT22;53049;43.446;3.698;2023-07-31T02:21:51;21.20;99.90
66257;DHT22;53049;43.446;3.698;2023-07-31T02:24:16;21.10;99.90
66257;DHT22;53049;43.446;3.698;2023-07-31T02:26:42;21.10;99.90
66257;DHT22;53049;43.446;3.698;2023-07-31T02:29:08;21.10;99.90
66257;DHT22;53049;43.446;3.698;2023-07-31T02:31:34;21.10;99.90
66257;DHT22;53049;43.446;3.698;2023-07-31T02:34:00;21.00;99.90
66257;DHT22;53049;43.446;3.698;2023-07-31T02:36:25;21.00;99.90
66257;DHT22;53049;43.446;3.698;2023-07-31T02:38:51;21.00;99.90
66257;DHT22;53049;43.446;3.698;2023-07-31T02:41:17;20.90;99.90
66257;DHT22;53049;43.446;3.698;2023-07-31T02:43:42;20.80;99.90
66257;DHT22;53049;43.446;3.698;2023-07-31T02:46:08;20.90;99.90
66257;DHT22;53049;43.446;3.698;2023-07-31T02:48:34;20.90;99.90
66257;DHT22;53049;43.446;3.698;2023-07-31T02:50:59;20.90;99.90
66257;DHT22;53049;43.446;3.698;2023-07-31T02:53:25;20.90;99.90
66257;DHT22;53049;43.446;3.698;2023-07-31T02:55:50;20.80;99.90
66257;DHT22;53049;43.446;3.698;2023-07-31T02:58:16;20.80;99.90
66257;DHT22;53049;43.446;3.698;2023-07-31T03:00:42;20.80;99.90
66257;DHT22;53049;43.446;3.698;2023-07-31T03:03:08;20.90;99.90
66257;DHT22;53049;43.446;3.698;2023-07-31T03:05:34;20.90;99.90
66257;DHT22;53049;43.446;3.698;2023-07-31T03:07:59;20.80;99.90
66257;DHT22;53049;43.446;3.698;2023-07-31T03:10:25;20.80;99.90
66257;DHT22;53049;43.446;3.698;2023-07-31T03:12:51;20.80;99.90
66257;DHT22;53049;43.446;3.698;2023-07-31T03:15:16;20.80;99.90
66257;DHT22;53049;43.446;3.698;2023-07-31T03:17:42;20.80;99.90
66257;DHT22;53049;43.446;3.698;2023-07-31T03:20:08;20.70;99.90
66257;DHT22;53049;43.446;3.698;2023-07-31T03:22:34;20.70;99.90
66257;DHT22;53049;43.446;3.698;2023-07-31T03:25:01;20.70;99.90
66257;DHT22;53049;43.446;3.698;2023-07-31T03:27:27;20.60;99.90
66257;DHT22;53049;43.446;3.698;2023-07-31T03:29:52;20.60;99.90
66257;DHT22;53049;43.446;3.698;2023-07-31T03:32:18;20.60;99.90
66257;DHT22;53049;43.446;3.698;2023-07-31T03:34:43;20.60;99.90
66257;DHT22;53049;43.446;3.698;2023-07-31T03:37:09;20.50;99.90
66257;DHT22;53049;43.446;3.698;2023-07-31T03:39:35;20.40;99.90
66257;DHT22;53049;43.446;3.698;2023-07-31T03:42:01;20.30;99.90
66257;DHT22;53049;43.446;3.698;2023-07-31T03:44:26;20.20;99.90
66257;DHT22;53049;43.446;3.698;2023-07-31T03:46:52;20.20;99.90
66257;DHT22;53049;43.446;3.698;2023-07-31T03:49:18;20.10;99.90
66257;DHT22;53049;43.446;3.698;2023-07-31T03:51:43;20.10;99.90
66257;DHT22;53049;43.446;3.698;2023-07-31T03:54:10;20.00;99.90
66257;DHT22;53049;43.446;3.698;2023-07-31T03:56:35;19.90;99.90
66257;DHT22;53049;43.446;3.698;2023-07-31T03:59:01;20.00;99.90
66257;DHT22;53049;43.446;3.698;2023-07-31T04:01:27;19.90;99.90
66257;DHT22;53049;43.446;3.698;2023-07-31T04:03:52;19.90;99.90
66257;DHT22;53049;43.446;3.698;2023-07-31T04:06:18;19.80;99.90
66257;DHT22;53049;43.446;3.698;2023-07-31T04:08:44;19.90;99.90
66257;DHT22;53049;43.446;3.698;2023-07-31T04:11:13;19.90;99.90
66257;DHT22;53049;43.446;3.698;2023-07-31T04:13:39;19.80;99.90
66257;DHT22;53049;43.446;3.698;2023-07-31T04:16:04;19.80;99.90
66257;DHT22;53049;43.446;3.698;2023-07-31T04:18:31;19.90;99.90
66257;DHT22;53049;43.446;3.698;2023-07-31T04:20:58;19.90;99.90
66257;DHT22;53049;43.446;3.698;2023-07-31T04:23:24;19.80;99.90
66257;DHT22;53049;43.446;3.698;2023-07-31T04:25:50;19.90;99.90
66257;DHT22;53049;43.446;3.698;2023-07-31T04:28:16;19.90;99.90
66257;DHT22;53049;43.446;3.698;2023-07-31T04:30:41;20.00;99.90
66257;DHT22;53049;43.446;3.698;2023-07-31T04:33:07;20.00;99.90
66257;DHT22;53049;43.446;3.698;2023-07-31T04:35:33;20.00;99.90
66257;DHT22;53049;43.446;3.698;2023-07-31T04:37:58;20.00;99.90
66257;DHT22;53049;43.446;3.698;2023-07-31T04:40:24;20.00;99.90
66257;DHT22;53049;43.446;3.698;2023-07-31T04:42:50;20.10;99.90
66257;DHT22;53049;43.446;3.698;2023-07-31T04:45:15;20.00;99.90
66257;DHT22;53049;43.446;3.698;2023-07-31T04:47:41;20.10;99.90
66257;DHT22;53049;43.446;3.698;2023-07-31T04:50:07;20.00;99.90
66257;DHT22;53049;43.446;3.698;2023-07-31T04:52:33;20.00;99.90
66257;DHT22;53049;43.446;3.698;2023-07-31T04:54:58;20.10;99.90
66257;DHT22;53049;43.446;3.698;2023-07-31T04:57:24;20.00;99.90
66257;DHT22;53049;43.446;3.698;2023-07-31T04:59:49;20.00;99.90
66257;DHT22;53049;43.446;3.698;2023-07-31T05:02:15;20.00;99.90
66257;DHT22;53049;43.446;3.698;2023-07-31T05:04:41;20.00;99.90
66257;DHT22;53049;43.446;3.698;2023-07-31T05:07:06;20.00;99.90
66257;DHT22;53049;43.446;3.698;2023-07-31T05:09:32;20.00;99.90
66257;DHT22;53049;43.446;3.698;2023-07-31T05:11:58;20.00;99.90
66257;DHT22;53049;43.446;3.698;2023-07-31T05:14:24;20.00;99.90
66257;DHT22;53049;43.446;3.698;2023-07-31T05:16:49;20.00;99.90
66257;DHT22;53049;43.446;3.698;2023-07-31T05:19:15;20.00;99.90
66257;DHT22;53049;43.446;3.698;2023-07-31T05:21:42;20.00;99.90
66257;DHT22;53049;43.446;3.698;2023-07-31T05:24:07;20.00;99.90
66257;DHT22;53049;43.446;3.698;2023-07-31T05:26:33;20.00;99.90
66257;DHT22;53049;43.446;3.698;2023-07-31T05:28:58;20.00;99.90
66257;DHT22;53049;43.446;3.698;2023-07-31T05:31:24;20.00;99.90
66257;DHT22;53049;43.446;3.698;2023-07-31T05:33:50;20.10;99.90
66257;DHT22;53049;43.446;3.698;2023-07-31T05:36:17;20.10;99.90
66257;DHT22;53049;43.446;3.698;2023-07-31T05:38:43;20.10;99.90
66257;DHT22;53049;43.446;3.698;2023-07-31T05:41:11;20.20;99.90
66257;DHT22;53049;43.446;3.698;2023-07-31T05:43:37;20.20;99.90
66257;DHT22;53049;43.446;3.698;2023-07-31T05:46:02;20.20;99.90
66257;DHT22;53049;43.446;3.698;2023-07-31T05:48:28;20.20;99.90
66257;DHT22;53049;43.446;3.698;2023-07-31T05:50:54;20.30;99.90
66257;DHT22;53049;43.446;3.698;2023-07-31T05:53:19;20.30;99.90
66257;DHT22;53049;43.446;3.698;2023-07-31T05:55:45;20.40;99.90
66257;DHT22;53049;43.446;3.698;2023-07-31T05:58:11;20.50;99.90
66257;DHT22;53049;43.446;3.698;2023-07-31T06:00:36;20.60;99.90
66257;DHT22;53049;43.446;3.698;2023-07-31T06:03:02;20.70;99.90
66257;DHT22;53049;43.446;3.698;2023-07-31T06:05:28;20.70;99.90
66257;DHT22;53049;43.446;3.698;2023-07-31T06:07:55;20.80;99.90
66257;DHT22;53049;43.446;3.698;2023-07-31T06:10:21;20.90;99.90
66257;DHT22;53049;43.446;3.698;2023-07-31T06:12:47;20.90;99.90
66257;DHT22;53049;43.446;3.698;2023-07-31T06:15:12;21.00;99.90
66257;DHT22;53049;43.446;3.698;2023-07-31T06:17:38;21.00;99.90
66257;DHT22;53049;43.446;3.698;2023-07-31T06:20:06;21.00;99.90
66257;DHT22;53049;43.446;3.698;2023-07-31T06:22:32;21.10;99.90
66257;DHT22;53049;43.446;3.698;2023-07-31T06:24:58;21.10;99.90
66257;DHT22;53049;43.446;3.698;2023-07-31T06:27:24;21.10;99.90
66257;DHT22;53049;43.446;3.698;2023-07-31T06:29:50;21.20;99.90
66257;DHT22;53049;43.446;3.698;2023-07-31T06:32:15;21.20;99.90
66257;DHT22;53049;43.446;3.698;2023-07-31T06:34:41;21.30;99.90
66257;DHT22;53049;43.446;3.698;2023-07-31T06:37:06;21.30;99.90
66257;DHT22;53049;43.446;3.698;2023-07-31T06:39:32;21.40;99.90
66257;DHT22;53049;43.446;3.698;2023-07-31T06:41:58;21.50;99.90
66257;DHT22;53049;43.446;3.698;2023-07-31T06:44:23;21.60;99.90
66257;DHT22;53049;43.446;3.698;2023-07-31T06:46:49;21.60;99.90
66257;DHT22;53049;43.446;3.698;2023-07-31T06:49:15;21.60;99.90
66257;DHT22;53049;43.446;3.698;2023-07-31T06:51:41;21.70;99.90
66257;DHT22;53049;43.446;3.698;2023-07-31T06:54:07;21.70;99.90
66257;DHT22;53049;43.446;3.698;2023-07-31T06:56:33;21.80;99.90
66257;DHT22;53049;43.446;3.698;2023-07-31T06:58:58;21.80;99.90
66257;DHT22;53049;43.446;3.698;2023-07-31T07:01:24;21.90;99.90
66257;DHT22;53049;43.446;3.698;2023-07-31T07:03:50;22.00;99.90
66257;DHT22;53049;43.446;3.698;2023-07-31T07:06:18;22.00;99.90
66257;DHT22;53049;43.446;3.698;2023-07-31T07:08:44;22.10;99.90
66257;DHT22;53049;43.446;3.698;2023-07-31T07:11:10;22.20;99.90
66257;DHT22;53049;43.446;3.698;2023-07-31T07:13:35;22.20;99.90
66257;DHT22;53049;43.446;3.698;2023-07-31T07:16:01;22.30;99.90
66257;DHT22;53049;43.446;3.698;2023-07-31T07:18:27;22.30;99.90
66257;DHT22;53049;43.446;3.698;2023-07-31T07:20:54;22.50;99.90
66257;DHT22;53049;43.446;3.698;2023-07-31T07:23:20;22.60;99.90
66257;DHT22;53049;43.446;3.698;2023-07-31T07:25:47;22.70;99.90
66257;DHT22;53049;43.446;3.698;2023-07-31T07:28:13;22.80;99.90
66257;DHT22;53049;43.446;3.698;2023-07-31T07:30:39;22.90;99.90
66257;DHT22;53049;43.446;3.698;2023-07-31T07:33:05;23.10;99.90
66257;DHT22;53049;43.446;3.698;2023-07-31T07:35:33;23.40;99.90
66257;DHT22;53049;43.446;3.698;2023-07-31T07:37:59;24.30;99.90
66257;DHT22;53049;43.446;3.698;2023-07-31T07:40:26;25.90;99.90
66257;DHT22;53049;43.446;3.698;2023-07-31T07:42:51;27.30;99.90
66257;DHT22;53049;43.446;3.698;2023-07-31T07:45:17;28.10;99.90
66257;DHT22;53049;43.446;3.698;2023-07-31T07:47:43;28.40;99.90
66257;DHT22;53049;43.446;3.698;2023-07-31T07:50:09;30.00;99.90
66257;DHT22;53049;43.446;3.698;2023-07-31T07:52:34;31.50;99.90
66257;DHT22;53049;43.446;3.698;2023-07-31T07:55:00;33.30;99.90
66257;DHT22;53049;43.446;3.698;2023-07-31T07:57:26;33.90;99.90
66257;DHT22;53049;43.446;3.698;2023-07-31T07:59:52;35.00;99.90
66257;DHT22;53049;43.446;3.698;2023-07-31T08:02:18;35.00;99.90
66257;DHT22;53049;43.446;3.698;2023-07-31T08:04:44;32.50;99.90
66257;DHT22;53049;43.446;3.698;2023-07-31T08:07:12;35.30;99.90
66257;DHT22;53049;43.446;3.698;2023-07-31T08:09:38;38.20;99.90
66257;DHT22;53049;43.446;3.698;2023-07-31T08:12:05;39.10;99.90
66257;DHT22;53049;43.446;3.698;2023-07-31T08:14:30;39.90;99.90
66257;DHT22;53049;43.446;3.698;2023-07-31T08:16:56;40.10;99.90
66257;DHT22;53049;43.446;3.698;2023-07-31T08:19:22;40.90;99.90
66257;DHT22;53049;43.446;3.698;2023-07-31T08:21:48;41.10;99.90
66257;DHT22;53049;43.446;3.698;2023-07-31T08:24:13;38.80;99.90
66257;DHT22;53049;43.446;3.698;2023-07-31T08:26:39;37.20;99.90
66257;DHT22;53049;43.446;3.698;2023-07-31T08:29:05;40.50;99.90
66257;DHT22;53049;43.446;3.698;2023-07-31T08:31:31;41.80;99.90
66257;DHT22;53049;43.446;3.698;2023-07-31T08:33:57;42.90;99.90
66257;DHT22;53049;43.446;3.698;2023-07-31T08:36:22;43.00;99.90
66257;DHT22;53049;43.446;3.698;2023-07-31T08:38:48;37.90;99.90
66257;DHT22;53049;43.446;3.698;2023-07-31T08:41:15;35.30;99.90
66257;DHT22;53049;43.446;3.698;2023-07-31T08:43:44;33.70;99.90
66257;DHT22;53049;43.446;3.698;2023-07-31T08:46:10;32.40;99.90
66257;DHT22;53049;43.446;3.698;2023-07-31T08:48:37;32.10;99.90
66257;DHT22;53049;43.446;3.698;2023-07-31T08:51:04;30.80;99.90
66257;DHT22;53049;43.446;3.698;2023-07-31T08:53:29;30.70;99.90
66257;DHT22;53049;43.446;3.698;2023-07-31T08:55:56;30.80;99.90
66257;DHT22;53049;43.446;3.698;2023-07-31T08:58:24;30.90;99.90
66257;DHT22;53049;43.446;3.698;2023-07-31T09:00:51;31.10;99.90
66257;DHT22;53049;43.446;3.698;2023-07-31T09:03:22;31.30;99.90
66257;DHT22;53049;43.446;3.698;2023-07-31T09:05:48;31.10;99.90
66257;DHT22;53049;43.446;3.698;2023-07-31T09:08:18;31.30;99.90
66257;DHT22;53049;43.446;3.698;2023-07-31T09:10:45;31.60;99.90
66257;DHT22;53049;43.446;3.698;2023-07-31T09:13:12;31.20;99.90
66257;DHT22;53049;43.446;3.698;2023-07-31T09:15:38;31.00;99.90
66257;DHT22;53049;43.446;3.698;2023-07-31T09:18:06;30.50;99.90
66257;DHT22;53049;43.446;3.698;2023-07-31T09:20:32;30.20;99.90
66257;DHT22;53049;43.446;3.698;2023-07-31T09:23:10;30.70;99.90
66257;DHT22;53049;43.446;3.698;2023-07-31T09:25:37;30.70;99.90
66257;DHT22;53049;43.446;3.698;2023-07-31T09:28:09;30.80;99.90
66257;DHT22;53049;43.446;3.698;2023-07-31T09:30:49;31.10;99.90
66257;DHT22;53049;43.446;3.698;2023-07-31T09:33:15;30.90;99.90
66257;DHT22;53049;43.446;3.698;2023-07-31T09:35:41;31.20;99.90
66257;DHT22;53049;43.446;3.698;2023-07-31T09:38:09;31.30;99.90
66257;DHT22;53049;43.446;3.698;2023-07-31T09:40:36;31.30;99.90
66257;DHT22;53049;43.446;3.698;2023-07-31T09:43:04;31.30;99.90
66257;DHT22;53049;43.446;3.698;2023-07-31T09:45:35;32.10;99.90
66257;DHT22;53049;43.446;3.698;2023-07-31T09:48:17;32.60;99.90
66257;DHT22;53049;43.446;3.698;2023-07-31T09:50:48;31.70;99.90
66257;DHT22;53049;43.446;3.698;2023-07-31T09:53:15;31.10;99.90
66257;DHT22;53049;43.446;3.698;2023-07-31T09:55:41;31.50;99.90
66257;DHT22;53049;43.446;3.698;2023-07-31T09:58:09;32.30;99.90
66257;DHT22;53049;43.446;3.698;2023-07-31T10:00:35;32.10;99.90
66257;DHT22;53049;43.446;3.698;2023-07-31T10:03:04;31.80;99.90
66257;DHT22;53049;43.446;3.698;2023-07-31T10:05:53;32.10;99.90
66257;DHT22;53049;43.446;3.698;2023-07-31T10:08:22;32.70;99.90
66257;DHT22;53049;43.446;3.698;2023-07-31T10:10:49;33.30;99.90
66257;DHT22;53049;43.446;3.698;2023-07-31T10:13:15;33.20;99.90
66257;DHT22;53049;43.446;3.698;2023-07-31T10:15:42;33.30;99.90
66257;DHT22;53049;43.446;3.698;2023-07-31T10:18:09;33.00;99.90
66257;DHT22;53049;43.446;3.698;2023-07-31T10:20:35;33.30;99.90
66257;DHT22;53049;43.446;3.698;2023-07-31T10:23:01;33.00;99.90
66257;DHT22;53049;43.446;3.698;2023-07-31T10:25:27;33.10;99.90
66257;DHT22;53049;43.446;3.698;2023-07-31T10:27:54;32.50;99.90
66257;DHT22;53049;43.446;3.698;2023-07-31T10:30:23;31.70;99.90
66257;DHT22;53049;43.446;3.698;2023-07-31T10:32:51;32.20;99.90
66257;DHT22;53049;43.446;3.698;2023-07-31T10:35:18;33.00;99.90
66257;DHT22;53049;43.446;3.698;2023-07-31T10:37:44;33.20;99.90
66257;DHT22;53049;43.446;3.698;2023-07-31T10:40:16;33.20;99.90
66257;DHT22;53049;43.446;3.698;2023-07-31T10:42:49;32.00;99.90
66257;DHT22;53049;43.446;3.698;2023-07-31T10:45:42;31.20;99.90
66257;DHT22;53049;43.446;3.698;2023-07-31T10:48:17;30.80;99.90
66257;DHT22;53049;43.446;3.698;2023-07-31T10:50:54;30.30;99.90
66257;DHT22;53049;43.446;3.698;2023-07-31T10:53:25;30.40;99.90
66257;DHT22;53049;43.446;3.698;2023-07-31T10:55:50;30.50;99.90
66257;DHT22;53049;43.446;3.698;2023-07-31T10:58:20;30.60;99.90
66257;DHT22;53049;43.446;3.698;2023-07-31T11:00:48;30.40;99.90
66257;DHT22;53049;43.446;3.698;2023-07-31T11:03:17;30.30;99.90
66257;DHT22;53049;43.446;3.698;2023-07-31T11:10:50;30.30;99.90
66257;DHT22;53049;43.446;3.698;2023-07-31T11:13:17;30.40;99.90
66257;DHT22;53049;43.446;3.698;2023-07-31T11:15:42;30.30;99.90
66257;DHT22;53049;43.446;3.698;2023-07-31T11:18:08;30.40;99.90
66257;DHT22;53049;43.446;3.698;2023-07-31T11:20:37;30.60;99.90
66257;DHT22;53049;43.446;3.698;2023-07-31T11:23:07;30.30;99.90
66257;DHT22;53049;43.446;3.698;2023-07-31T11:25:33;30.50;99.90
66257;DHT22;53049;43.446;3.698;2023-07-31T11:28:04;30.60;99.90
66257;DHT22;53049;43.446;3.698;2023-07-31T11:30:30;30.40;99.90
66257;DHT22;53049;43.446;3.698;2023-07-31T11:32:56;30.60;99.90
66257;DHT22;53049;43.446;3.698;2023-07-31T11:35:22;30.60;99.90
66257;DHT22;53049;43.446;3.698;2023-07-31T11:37:48;30.70;99.90
66257;DHT22;53049;43.446;3.698;2023-07-31T11:40:14;30.80;99.90
66257;DHT22;53049;43.446;3.698;2023-07-31T11:42:40;30.70;99.90
66257;DHT22;53049;43.446;3.698;2023-07-31T11:45:08;30.70;99.90
66257;DHT22;53049;43.446;3.698;2023-07-31T11:47:36;30.90;99.90
66257;DHT22;53049;43.446;3.698;2023-07-31T11:50:06;31.00;99.90
66257;DHT22;53049;43.446;3.698;2023-07-31T11:52:41;30.90;99.90
66257;DHT22;53049;43.446;3.698;2023-07-31T11:55:08;30.90;99.90
66257;DHT22;53049;43.446;3.698;2023-07-31T11:57:37;30.90;99.90
66257;DHT22;53049;43.446;3.698;2023-07-31T12:00:04;30.90;99.90
66257;DHT22;53049;43.446;3.698;2023-07-31T12:02:30;31.10;99.90
66257;DHT22;53049;43.446;3.698;2023-07-31T12:04:55;31.10;99.90
66257;DHT22;53049;43.446;3.698;2023-07-31T12:07:21;31.20;99.90
66257;DHT22;53049;43.446;3.698;2023-07-31T12:09:53;31.20;99.90
66257;DHT22;53049;43.446;3.698;2023-07-31T12:12:20;31.10;99.90
66257;DHT22;53049;43.446;3.698;2023-07-31T12:14:46;31.10;99.90
66257;DHT22;53049;43.446;3.698;2023-07-31T12:17:12;31.10;99.90
66257;DHT22;53049;43.446;3.698;2023-07-31T12:19:39;31.20;99.90
66257;DHT22;53049;43.446;3.698;2023-07-31T12:22:15;31.30;99.90
66257;DHT22;53049;43.446;3.698;2023-07-31T12:24:43;31.30;99.90
66257;DHT22;53049;43.446;3.698;2023-07-31T12:27:13;31.20;99.90
66257;DHT22;53049;43.446;3.698;2023-07-31T12:29:40;31.30;99.90
66257;DHT22;53049;43.446;3.698;2023-07-31T12:32:26;31.40;99.90
66257;DHT22;53049;43.446;3.698;2023-07-31T12:34:59;31.40;99.90
66257;DHT22;53049;43.446;3.698;2023-07-31T12:37:25;31.20;99.90
66257;DHT22;53049;43.446;3.698;2023-07-31T12:39:50;31.40;99.90
66257;DHT22;53049;43.446;3.698;2023-07-31T12:42:17;31.30;99.90
66257;DHT22;53049;43.446;3.698;2023-07-31T12:44:43;31.30;99.90
66257;DHT22;53049;43.446;3.698;2023-07-31T12:47:09;31.30;99.90
66257;DHT22;53049;43.446;3.698;2023-07-31T12:49:34;31.30;99.90
66257;DHT22;53049;43.446;3.698;2023-07-31T12:52:00;31.50;99.90
66257;DHT22;53049;43.446;3.698;2023-07-31T12:54:26;31.40;99.90
66257;DHT22;53049;43.446;3.698;2023-07-31T12:56:51;31.40;99.90
66257;DHT22;53049;43.446;3.698;2023-07-31T12:59:17;31.60;99.90
66257;DHT22;53049;43.446;3.698;2023-07-31T13:01:42;31.70;99.90
66257;DHT22;53049;43.446;3.698;2023-07-31T13:04:08;31.60;99.90
66257;DHT22;53049;43.446;3.698;2023-07-31T13:06:34;31.80;99.90
66257;DHT22;53049;43.446;3.698;2023-07-31T13:09:00;31.70;99.90
66257;DHT22;53049;43.446;3.698;2023-07-31T13:11:25;31.80;99.90
66257;DHT22;53049;43.446;3.698;2023-07-31T13:13:51;31.80;99.90
66257;DHT22;53049;43.446;3.698;2023-07-31T13:16:17;31.80;99.90
66257;DHT22;53049;43.446;3.698;2023-07-31T13:18:42;32.00;99.90
66257;DHT22;53049;43.446;3.698;2023-07-31T13:21:08;32.10;99.90
66257;DHT22;53049;43.446;3.698;2023-07-31T13:23:33;32.00;99.90
66257;DHT22;53049;43.446;3.698;2023-07-31T13:25:59;31.90;99.90
66257;DHT22;53049;43.446;3.698;2023-07-31T13:28:25;32.10;99.90
66257;DHT22;53049;43.446;3.698;2023-07-31T13:30:50;32.10;99.90
66257;DHT22;53049;43.446;3.698;2023-07-31T13:33:16;32.10;99.90
66257;DHT22;53049;43.446;3.698;2023-07-31T13:35:42;32.10;99.90
66257;DHT22;53049;43.446;3.698;2023-07-31T13:38:07;32.00;99.90
66257;DHT22;53049;43.446;3.698;2023-07-31T13:40:33;32.00;99.90
66257;DHT22;53049;43.446;3.698;2023-07-31T13:42:58;32.00;99.90
66257;DHT22;53049;43.446;3.698;2023-07-31T13:45:24;32.20;99.90
66257;DHT22;53049;43.446;3.698;2023-07-31T13:47:50;32.20;99.90
66257;DHT22;53049;43.446;3.698;2023-07-31T13:50:16;32.20;99.90
66257;DHT22;53049;43.446;3.698;2023-07-31T13:52:44;32.30;99.90
66257;DHT22;53049;43.446;3.698;2023-07-31T13:55:10;32.40;99.90
66257;DHT22;53049;43.446;3.698;2023-07-31T13:57:35;32.50;99.90
66257;DHT22;53049;43.446;3.698;2023-07-31T14:00:01;32.30;99.90
66257;DHT22;53049;43.446;3.698;2023-07-31T14:02:27;32.20;99.90
66257;DHT22;53049;43.446;3.698;2023-07-31T14:04:53;32.00;99.90
66257;DHT22;53049;43.446;3.698;2023-07-31T14:07:18;31.80;99.90
66257;DHT22;53049;43.446;3.698;2023-07-31T14:09:44;31.90;99.90
66257;DHT22;53049;43.446;3.698;2023-07-31T14:12:10;32.00;99.90
66257;DHT22;53049;43.446;3.698;2023-07-31T14:14:38;32.00;99.90
66257;DHT22;53049;43.446;3.698;2023-07-31T14:17:04;31.90;99.90
66257;DHT22;53049;43.446;3.698;2023-07-31T14:19:30;32.10;99.90
66257;DHT22;53049;43.446;3.698;2023-07-31T14:21:58;32.10;99.90
66257;DHT22;53049;43.446;3.698;2023-07-31T14:24:24;32.20;99.90
66257;DHT22;53049;43.446;3.698;2023-07-31T14:26:50;32.20;99.90
66257;DHT22;53049;43.446;3.698;2023-07-31T14:29:15;32.20;99.90
66257;DHT22;53049;43.446;3.698;2023-07-31T14:31:41;32.30;99.90
66257;DHT22;53049;43.446;3.698;2023-07-31T14:34:06;32.40;99.90
66257;DHT22;53049;43.446;3.698;2023-07-31T14:36:32;32.50;99.90
66257;DHT22;53049;43.446;3.698;2023-07-31T14:38:58;32.70;99.90
66257;DHT22;53049;43.446;3.698;2023-07-31T14:41:23;32.70;99.90
66257;DHT22;53049;43.446;3.698;2023-07-31T14:43:49;32.70;99.90
66257;DHT22;53049;43.446;3.698;2023-07-31T14:46:15;32.80;99.90
66257;DHT22;53049;43.446;3.698;2023-07-31T14:48:40;32.70;99.90
66257;DHT22;53049;43.446;3.698;2023-07-31T14:51:06;32.60;99.90
66257;DHT22;53049;43.446;3.698;2023-07-31T14:53:31;32.60;99.90
66257;DHT22;53049;43.446;3.698;2023-07-31T14:55:57;32.60;99.90
66257;DHT22;53049;43.446;3.698;2023-07-31T14:58:23;32.60;99.90
66257;DHT22;53049;43.446;3.698;2023-07-31T15:00:49;32.60;99.90
66257;DHT22;53049;43.446;3.698;2023-07-31T15:03:15;32.80;99.90
66257;DHT22;53049;43.446;3.698;2023-07-31T15:05:40;32.70;99.90
66257;DHT22;53049;43.446;3.698;2023-07-31T15:08:06;32.70;99.90
66257;DHT22;53049;43.446;3.698;2023-07-31T15:10:32;32.60;99.90
66257;DHT22;53049;43.446;3.698;2023-07-31T15:12:57;32.50;99.90
66257;DHT22;53049;43.446;3.698;2023-07-31T15:15:23;32.60;99.90
66257;DHT22;53049;43.446;3.698;2023-07-31T15:17:49;32.60;99.90
66257;DHT22;53049;43.446;3.698;2023-07-31T15:20:15;32.60;99.90
66257;DHT22;53049;43.446;3.698;2023-07-31T15:22:40;32.40;99.90
66257;DHT22;53049;43.446;3.698;2023-07-31T15:25:07;32.40;99.90
66257;DHT22;53049;43.446;3.698;2023-07-31T15:27:33;32.40;99.90
66257;DHT22;53049;43.446;3.698;2023-07-31T15:29:58;32.40;99.90
66257;DHT22;53049;43.446;3.698;2023-07-31T15:32:24;32.50;99.90
66257;DHT22;53049;43.446;3.698;2023-07-31T15:34:50;32.40;99.90
66257;DHT22;53049;43.446;3.698;2023-07-31T15:37:15;32.50;99.90
66257;DHT22;53049;43.446;3.698;2023-07-31T15:39:43;32.60;99.90